sensor_id;sensor_type;location;lat;lon;timestamp;P1;durP1;ratioP1;P2;durP2;ratioP2
31384;SDS011;18016;49.788;8.742;2023-04-28T00:00:23;5.20;;;3.03;;
31384;SDS011;18016;49.788;8.742;2023-04-28T00:02:48;4.13;;;2.40;;
31384;SDS011;18016;49.788;8.742;2023-04-28T00:05:14;5.72;;;2.30;;
31384;SDS011;18016;49.788;8.742;2023-04-28T00:07:39;4.07;;;2.60;;
31384;SDS011;18016;49.788;8.742;2023-04-28T00:10:04;2.90;;;2.40;;
31384;SDS011;18016;49.788;8.742;2023-04-28T00:12:30;2.75;;;2.53;;
31384;SDS011;18016;49.788;8.742;2023-04-28T00:14:55;4.43;;;2.77;;
31384;SDS011;18016;49.788;8.742;2023-04-28T00:17:20;2.28;;;2.08;;
31384;SDS011;18016;49.788;8.742;2023-04-28T00:19:45;2.97;;;2.57;;
31384;SDS011;18016;49.788;8.742;2023-04-28T00:22:10;2.40;;;2.20;;
31384;SDS011;18016;49.788;8.742;2023-04-28T00:24:36;2.55;;;2.15;;
31384;SDS011;18016;49.788;8.742;2023-04-28T00:27:01;4.40;;;2.33;;
31384;SDS011;18016;49.788;8.742;2023-04-28T00:29:27;3.55;;;2.53;;
31384;SDS011;18016;49.788;8.742;2023-04-28T00:31:52;3.15;;;2.75;;
31384;SDS011;18016;49.788;8.742;2023-04-28T00:34:17;2.30;;;2.13;;
31384;SDS011;18016;49.788;8.742;2023-04-28T00:36:42;2.50;;;2.27;;
31384;SDS011;18016;49.788;8.742;2023-04-28T00:39:08;2.53;;;2.30;;
31384;SDS011;18016;49.788;8.742;2023-04-28T00:41:33;2.92;;;2.45;;
31384;SDS011;18016;49.788;8.742;2023-04-28T00:43:59;2.50;;;2.30;;
31384;SDS011;18016;49.788;8.742;2023-04-28T00:46:26;3.47;;;2.50;;
31384;SDS011;18016;49.788;8.742;2023-04-28T00:48:51;2.92;;;2.47;;
31384;SDS011;18016;49.788;8.742;2023-04-28T00:51:17;3.88;;;2.25;;
31384;SDS011;18016;49.788;8.742;2023-04-28T00:53:42;2.30;;;2.03;;
31384;SDS011;18016;49.788;8.742;2023-04-28T00:56:07;2.70;;;2.28;;
31384;SDS011;18016;49.788;8.742;2023-04-28T00:58:33;2.37;;;1.97;;
31384;SDS011;18016;49.788;8.742;2023-04-28T01:01:04;2.80;;;2.10;;
31384;SDS011;18016;49.788;8.742;2023-04-28T01:03:32;3.25;;;2.30;;
31384;SDS011;18016;49.788;8.742;2023-04-28T01:05:58;2.58;;;2.22;;
31384;SDS011;18016;49.788;8.742;2023-04-28T01:08:26;2.83;;;2.45;;
31384;SDS011;18016;49.788;8.742;2023-04-28T01:10:52;7.00;;;2.55;;
31384;SDS011;18016;49.788;8.742;2023-04-28T01:13:17;3.58;;;2.15;;
31384;SDS011;18016;49.788;8.742;2023-04-28T01:15:42;4.77;;;2.10;;
31384;SDS011;18016;49.788;8.742;2023-04-28T01:18:07;3.10;;;1.97;;
31384;SDS011;18016;49.788;8.742;2023-04-28T01:20:32;3.20;;;2.10;;
31384;SDS011;18016;49.788;8.742;2023-04-28T01:22:58;2.57;;;2.37;;
31384;SDS011;18016;49.788;8.742;2023-04-28T01:25:23;2.60;;;2.13;;
31384;SDS011;18016;49.788;8.742;2023-04-28T01:27:48;1.97;;;1.80;;
31384;SDS011;18016;49.788;8.742;2023-04-28T01:30:13;2.97;;;1.90;;
31384;SDS011;18016;49.788;8.742;2023-04-28T01:32:38;1.93;;;1.60;;
31384;SDS011;18016;49.788;8.742;2023-04-28T01:35:03;2.77;;;2.23;;
31384;SDS011;18016;49.788;8.742;2023-04-28T01:37:29;2.58;;;2.20;;
31384;SDS011;18016;49.788;8.742;2023-04-28T01:39:54;4.13;;;2.05;;
31384;SDS011;18016;49.788;8.742;2023-04-28T01:42:19;2.50;;;2.05;;
31384;SDS011;18016;49.788;8.742;2023-04-28T01:44:45;2.33;;;2.00;;
31384;SDS011;18016;49.788;8.742;2023-04-28T01:47:10;2.10;;;1.87;;
31384;SDS011;18016;49.788;8.742;2023-04-28T01:49:35;1.87;;;1.77;;
31384;SDS011;18016;49.788;8.742;2023-04-28T01:52:00;3.73;;;2.30;;
31384;SDS011;18016;49.788;8.742;2023-04-28T01:54:25;3.13;;;2.03;;
31384;SDS011;18016;49.788;8.742;2023-04-28T01:56:51;3.00;;;1.88;;
31384;SDS011;18016;49.788;8.742;2023-04-28T01:59:16;6.97;;;2.57;;
31384;SDS011;18016;49.788;8.742;2023-04-28T02:01:42;2.97;;;2.20;;
31384;SDS011;18016;49.788;8.742;2023-04-28T02:04:07;2.40;;;2.10;;
31384;SDS011;18016;49.788;8.742;2023-04-28T02:06:33;3.50;;;2.23;;
31384;SDS011;18016;49.788;8.742;2023-04-28T02:08:58;2.20;;;2.00;;
31384;SDS011;18016;49.788;8.742;2023-04-28T02:11:23;6.00;;;2.07;;
31384;SDS011;18016;49.788;8.742;2023-04-28T02:13:48;2.37;;;2.17;;
31384;SDS011;18016;49.788;8.742;2023-04-28T02:16:14;3.45;;;1.80;;
31384;SDS011;18016;49.788;8.742;2023-04-28T02:18:40;4.93;;;2.37;;
31384;SDS011;18016;49.788;8.742;2023-04-28T02:21:08;3.40;;;2.20;;
31384;SDS011;18016;49.788;8.742;2023-04-28T02:23:35;2.20;;;2.00;;
31384;SDS011;18016;49.788;8.742;2023-04-28T02:26:00;2.23;;;2.07;;
31384;SDS011;18016;49.788;8.742;2023-04-28T02:28:25;2.80;;;2.10;;
31384;SDS011;18016;49.788;8.742;2023-04-28T02:30:51;4.70;;;2.20;;
31384;SDS011;18016;49.788;8.742;2023-04-28T02:33:17;2.30;;;2.10;;
31384;SDS011;18016;49.788;8.742;2023-04-28T02:35:42;2.45;;;2.25;;
31384;SDS011;18016;49.788;8.742;2023-04-28T02:38:07;2.87;;;2.20;;
31384;SDS011;18016;49.788;8.742;2023-04-28T02:40:32;2.23;;;2.03;;
31384;SDS011;18016;49.788;8.742;2023-04-28T02:42:57;2.50;;;2.10;;
31384;SDS011;18016;49.788;8.742;2023-04-28T02:45:22;2.42;;;1.98;;
31384;SDS011;18016;49.788;8.742;2023-04-28T02:47:48;4.50;;;2.60;;
31384;SDS011;18016;49.788;8.742;2023-04-28T02:50:13;4.47;;;2.37;;
31384;SDS011;18016;49.788;8.742;2023-04-28T02:52:38;3.43;;;2.40;;
31384;SDS011;18016;49.788;8.742;2023-04-28T02:55:03;2.47;;;2.10;;
31384;SDS011;18016;49.788;8.742;2023-04-28T02:57:29;2.85;;;2.25;;
31384;SDS011;18016;49.788;8.742;2023-04-28T02:59:54;3.05;;;2.30;;
31384;SDS011;18016;49.788;8.742;2023-04-28T03:02:19;2.38;;;2.17;;
31384;SDS011;18016;49.788;8.742;2023-04-28T03:04:46;4.22;;;2.45;;
31384;SDS011;18016;49.788;8.742;2023-04-28T03:07:12;2.30;;;2.10;;
31384;SDS011;18016;49.788;8.742;2023-04-28T03:09:37;3.53;;;2.20;;
31384;SDS011;18016;49.788;8.742;2023-04-28T03:12:02;2.20;;;2.00;;
31384;SDS011;18016;49.788;8.742;2023-04-28T03:14:27;3.28;;;2.25;;
31384;SDS011;18016;49.788;8.742;2023-04-28T03:16:52;3.50;;;2.73;;
31384;SDS011;18016;49.788;8.742;2023-04-28T03:19:17;3.78;;;2.30;;
31384;SDS011;18016;49.788;8.742;2023-04-28T03:21:43;4.20;;;2.20;;
31384;SDS011;18016;49.788;8.742;2023-04-28T03:24:08;2.13;;;1.93;;
31384;SDS011;18016;49.788;8.742;2023-04-28T03:26:33;4.27;;;2.20;;
31384;SDS011;18016;49.788;8.742;2023-04-28T03:28:58;4.43;;;2.40;;
31384;SDS011;18016;49.788;8.742;2023-04-28T03:31:24;3.15;;;2.30;;
31384;SDS011;18016;49.788;8.742;2023-04-28T03:33:49;2.95;;;2.25;;
31384;SDS011;18016;49.788;8.742;2023-04-28T03:36:14;4.85;;;1.92;;
31384;SDS011;18016;49.788;8.742;2023-04-28T03:38:40;2.30;;;2.10;;
31384;SDS011;18016;49.788;8.742;2023-04-28T03:41:05;2.38;;;2.17;;
31384;SDS011;18016;49.788;8.742;2023-04-28T03:43:30;2.00;;;1.80;;
31384;SDS011;18016;49.788;8.742;2023-04-28T03:45:57;2.35;;;2.10;;
31384;SDS011;18016;49.788;8.742;2023-04-28T03:48:22;2.50;;;2.30;;
31384;SDS011;18016;49.788;8.742;2023-04-28T03:50:47;2.20;;;2.00;;
31384;SDS011;18016;49.788;8.742;2023-04-28T03:53:12;2.77;;;2.13;;
31384;SDS011;18016;49.788;8.742;2023-04-28T03:55:37;3.73;;;2.20;;
31384;SDS011;18016;49.788;8.742;2023-04-28T03:58:03;2.43;;;2.10;;
31384;SDS011;18016;49.788;8.742;2023-04-28T04:00:28;2.10;;;1.90;;
31384;SDS011;18016;49.788;8.742;2023-04-28T04:02:53;2.53;;;2.33;;
31384;SDS011;18016;49.788;8.742;2023-04-28T04:05:18;2.90;;;2.40;;
31384;SDS011;18016;49.788;8.742;2023-04-28T04:07:43;2.80;;;2.20;;
31384;SDS011;18016;49.788;8.742;2023-04-28T04:10:09;2.47;;;2.07;;
31384;SDS011;18016;49.788;8.742;2023-04-28T04:12:34;2.65;;;2.33;;
31384;SDS011;18016;49.788;8.742;2023-04-28T04:14:59;3.83;;;2.40;;
31384;SDS011;18016;49.788;8.742;2023-04-28T04:17:24;2.40;;;2.20;;
31384;SDS011;18016;49.788;8.742;2023-04-28T04:19:50;2.85;;;2.30;;
31384;SDS011;18016;49.788;8.742;2023-04-28T04:22:15;2.90;;;2.13;;
31384;SDS011;18016;49.788;8.742;2023-04-28T04:24:40;2.87;;;2.20;;
31384;SDS011;18016;49.788;8.742;2023-04-28T04:27:05;2.20;;;2.00;;
31384;SDS011;18016;49.788;8.742;2023-04-28T04:29:31;3.40;;;2.35;;
31384;SDS011;18016;49.788;8.742;2023-04-28T04:31:56;2.23;;;1.97;;
31384;SDS011;18016;49.788;8.742;2023-04-28T04:34:21;3.08;;;2.50;;
31384;SDS011;18016;49.788;8.742;2023-04-28T04:36:46;3.10;;;2.10;;
31384;SDS011;18016;49.788;8.742;2023-04-28T04:39:11;3.40;;;2.30;;
31384;SDS011;18016;49.788;8.742;2023-04-28T04:41:37;2.37;;;2.17;;
31384;SDS011;18016;49.788;8.742;2023-04-28T04:44:02;2.70;;;2.50;;
31384;SDS011;18016;49.788;8.742;2023-04-28T04:46:28;2.97;;;2.67;;
31384;SDS011;18016;49.788;8.742;2023-04-28T04:48:53;4.27;;;2.70;;
31384;SDS011;18016;49.788;8.742;2023-04-28T04:51:18;3.33;;;2.77;;
31384;SDS011;18016;49.788;8.742;2023-04-28T04:53:43;2.87;;;2.60;;
31384;SDS011;18016;49.788;8.742;2023-04-28T04:56:09;3.40;;;2.60;;
31384;SDS011;18016;49.788;8.742;2023-04-28T04:58:34;4.00;;;2.60;;
31384;SDS011;18016;49.788;8.742;2023-04-28T05:00:59;5.53;;;3.03;;
31384;SDS011;18016;49.788;8.742;2023-04-28T05:03:24;3.60;;;3.07;;
31384;SDS011;18016;49.788;8.742;2023-04-28T05:05:50;4.05;;;2.95;;
31384;SDS011;18016;49.788;8.742;2023-04-28T05:08:15;3.53;;;2.75;;
31384;SDS011;18016;49.788;8.742;2023-04-28T05:10:40;11.50;;;6.50;;
31384;SDS011;18016;49.788;8.742;2023-04-28T05:13:05;6.60;;;5.43;;
31384;SDS011;18016;49.788;8.742;2023-04-28T05:15:31;5.18;;;4.18;;
31384;SDS011;18016;49.788;8.742;2023-04-28T05:17:56;4.00;;;3.60;;
31384;SDS011;18016;49.788;8.742;2023-04-28T05:20:22;4.85;;;3.45;;
31384;SDS011;18016;49.788;8.742;2023-04-28T05:22:47;3.30;;;3.00;;
31384;SDS011;18016;49.788;8.742;2023-04-28T05:25:12;3.17;;;2.87;;
31384;SDS011;18016;49.788;8.742;2023-04-28T05:27:37;3.67;;;3.07;;
31384;SDS011;18016;49.788;8.742;2023-04-28T05:30:05;2.95;;;2.58;;
31384;SDS011;18016;49.788;8.742;2023-04-28T05:32:31;3.95;;;3.05;;
31384;SDS011;18016;49.788;8.742;2023-04-28T05:34:56;3.38;;;2.50;;
31384;SDS011;18016;49.788;8.742;2023-04-28T05:37:21;3.60;;;2.90;;
31384;SDS011;18016;49.788;8.742;2023-04-28T05:39:47;4.60;;;2.60;;
31384;SDS011;18016;49.788;8.742;2023-04-28T05:42:12;3.55;;;3.08;;
31384;SDS011;18016;49.788;8.742;2023-04-28T05:44:37;3.07;;;2.20;;
31384;SDS011;18016;49.788;8.742;2023-04-28T05:47:02;2.73;;;2.53;;
31384;SDS011;18016;49.788;8.742;2023-04-28T05:49:27;3.30;;;3.00;;
31384;SDS011;18016;49.788;8.742;2023-04-28T05:51:53;3.40;;;2.90;;
31384;SDS011;18016;49.788;8.742;2023-04-28T05:54:18;2.87;;;2.30;;
31384;SDS011;18016;49.788;8.742;2023-04-28T05:56:43;2.70;;;2.10;;
31384;SDS011;18016;49.788;8.742;2023-04-28T05:59:08;5.20;;;3.88;;
31384;SDS011;18016;49.788;8.742;2023-04-28T06:01:34;2.83;;;2.60;;
31384;SDS011;18016;49.788;8.742;2023-04-28T06:03:59;3.53;;;2.30;;
31384;SDS011;18016;49.788;8.742;2023-04-28T06:06:24;3.83;;;3.07;;
31384;SDS011;18016;49.788;8.742;2023-04-28T06:08:50;3.00;;;2.70;;
31384;SDS011;18016;49.788;8.742;2023-04-28T06:11:15;2.65;;;2.20;;
31384;SDS011;18016;49.788;8.742;2023-04-28T06:13:40;4.07;;;3.25;;
31384;SDS011;18016;49.788;8.742;2023-04-28T06:16:06;2.80;;;2.20;;
31384;SDS011;18016;49.788;8.742;2023-04-28T06:18:31;3.85;;;2.90;;
31384;SDS011;18016;49.788;8.742;2023-04-28T06:20:56;3.53;;;2.88;;
31384;SDS011;18016;49.788;8.742;2023-04-28T06:23:22;3.90;;;3.50;;
31384;SDS011;18016;49.788;8.742;2023-04-28T06:25:47;5.20;;;3.53;;
31384;SDS011;18016;49.788;8.742;2023-04-28T06:28:12;6.17;;;4.80;;
31384;SDS011;18016;49.788;8.742;2023-04-28T06:30:38;4.43;;;3.70;;
31384;SDS011;18016;49.788;8.742;2023-04-28T06:33:03;5.10;;;3.60;;
31384;SDS011;18016;49.788;8.742;2023-04-28T06:35:29;10.63;;;7.70;;
31384;SDS011;18016;49.788;8.742;2023-04-28T06:37:54;7.47;;;5.32;;
31384;SDS011;18016;49.788;8.742;2023-04-28T06:40:19;8.00;;;5.80;;
31384;SDS011;18016;49.788;8.742;2023-04-28T06:42:45;20.25;;;11.45;;
31384;SDS011;18016;49.788;8.742;2023-04-28T06:45:10;24.83;;;14.43;;
31384;SDS011;18016;49.788;8.742;2023-04-28T06:47:35;8.27;;;5.25;;
31384;SDS011;18016;49.788;8.742;2023-04-28T06:50:01;7.25;;;3.78;;
31384;SDS011;18016;49.788;8.742;2023-04-28T06:52:26;8.73;;;6.13;;
31384;SDS011;18016;49.788;8.742;2023-04-28T06:54:53;79.13;;;42.55;;
31384;SDS011;18016;49.788;8.742;2023-04-28T06:57:18;17.47;;;9.50;;
31384;SDS011;18016;49.788;8.742;2023-04-28T06:59:45;5.63;;;5.00;;
31384;SDS011;18016;49.788;8.742;2023-04-28T07:02:10;8.27;;;6.95;;
31384;SDS011;18016;49.788;8.742;2023-04-28T07:04:35;26.13;;;15.73;;
31384;SDS011;18016;49.788;8.742;2023-04-28T07:07:01;86.20;;;52.45;;
31384;SDS011;18016;49.788;8.742;2023-04-28T07:09:26;41.20;;;27.30;;
31384;SDS011;18016;49.788;8.742;2023-04-28T07:11:51;37.25;;;25.80;;
31384;SDS011;18016;49.788;8.742;2023-04-28T07:14:16;93.33;;;57.90;;
31384;SDS011;18016;49.788;8.742;2023-04-28T07:16:42;31.58;;;20.88;;
31384;SDS011;18016;49.788;8.742;2023-04-28T07:19:07;10.63;;;8.23;;
31384;SDS011;18016;49.788;8.742;2023-04-28T07:21:32;43.07;;;29.83;;
31384;SDS011;18016;49.788;8.742;2023-04-28T07:23:58;14.77;;;10.70;;
31384;SDS011;18016;49.788;8.742;2023-04-28T07:26:23;27.20;;;18.57;;
31384;SDS011;18016;49.788;8.742;2023-04-28T07:28:48;12.90;;;9.63;;
31384;SDS011;18016;49.788;8.742;2023-04-28T07:31:13;8.77;;;6.90;;
31384;SDS011;18016;49.788;8.742;2023-04-28T07:33:39;7.97;;;7.17;;
31384;SDS011;18016;49.788;8.742;2023-04-28T07:36:04;7.90;;;6.70;;
31384;SDS011;18016;49.788;8.742;2023-04-28T07:38:29;7.85;;;6.47;;
31384;SDS011;18016;49.788;8.742;2023-04-28T07:40:55;10.17;;;8.10;;
31384;SDS011;18016;49.788;8.742;2023-04-28T07:43:20;5.90;;;4.53;;
31384;SDS011;18016;49.788;8.742;2023-04-28T07:45:45;4.80;;;4.30;;
31384;SDS011;18016;49.788;8.742;2023-04-28T07:48:12;6.35;;;5.65;;
31384;SDS011;18016;49.788;8.742;2023-04-28T07:50:38;5.05;;;3.78;;
31384;SDS011;18016;49.788;8.742;2023-04-28T07:53:03;4.63;;;4.13;;
31384;SDS011;18016;49.788;8.742;2023-04-28T07:55:28;3.60;;;3.30;;
31384;SDS011;18016;49.788;8.742;2023-04-28T07:57:53;4.07;;;3.67;;
31384;SDS011;18016;49.788;8.742;2023-04-28T08:00:19;4.57;;;3.85;;
31384;SDS011;18016;49.788;8.742;2023-04-28T08:02:44;3.70;;;3.33;;
31384;SDS011;18016;49.788;8.742;2023-04-28T08:05:09;2.63;;;2.43;;
31384;SDS011;18016;49.788;8.742;2023-04-28T08:07:35;2.88;;;2.65;;
31384;SDS011;18016;49.788;8.742;2023-04-28T08:10:03;3.17;;;2.83;;
31384;SDS011;18016;49.788;8.742;2023-04-28T08:12:28;3.75;;;3.13;;
31384;SDS011;18016;49.788;8.742;2023-04-28T08:14:55;3.33;;;3.03;;
31384;SDS011;18016;49.788;8.742;2023-04-28T08:17:20;4.05;;;3.33;;
31384;SDS011;18016;49.788;8.742;2023-04-28T08:19:45;3.70;;;3.40;;
31384;SDS011;18016;49.788;8.742;2023-04-28T08:22:11;4.20;;;3.80;;
31384;SDS011;18016;49.788;8.742;2023-04-28T08:24:37;6.00;;;5.40;;
31384;SDS011;18016;49.788;8.742;2023-04-28T08:27:02;4.60;;;4.17;;
31384;SDS011;18016;49.788;8.742;2023-04-28T08:29:28;4.95;;;4.32;;
31384;SDS011;18016;49.788;8.742;2023-04-28T08:31:53;4.90;;;4.40;;
31384;SDS011;18016;49.788;8.742;2023-04-28T08:34:18;5.93;;;5.33;;
31384;SDS011;18016;49.788;8.742;2023-04-28T08:36:44;6.18;;;5.15;;
31384;SDS011;18016;49.788;8.742;2023-04-28T08:39:09;7.20;;;5.17;;
31384;SDS011;18016;49.788;8.742;2023-04-28T08:41:36;8.15;;;4.95;;
31384;SDS011;18016;49.788;8.742;2023-04-28T08:44:05;6.32;;;5.07;;
31384;SDS011;18016;49.788;8.742;2023-04-28T08:46:30;5.78;;;4.72;;
31384;SDS011;18016;49.788;8.742;2023-04-28T08:48:58;6.68;;;5.40;;
31384;SDS011;18016;49.788;8.742;2023-04-28T08:51:33;5.82;;;4.85;;
31384;SDS011;18016;49.788;8.742;2023-04-28T08:54:01;6.68;;;5.13;;
31384;SDS011;18016;49.788;8.742;2023-04-28T08:56:30;5.75;;;5.05;;
31384;SDS011;18016;49.788;8.742;2023-04-28T08:58:56;8.02;;;5.90;;
31384;SDS011;18016;49.788;8.742;2023-04-28T09:01:22;6.47;;;5.47;;
31384;SDS011;18016;49.788;8.742;2023-04-28T09:03:47;6.40;;;5.60;;
31384;SDS011;18016;49.788;8.742;2023-04-28T09:06:13;7.18;;;5.97;;
31384;SDS011;18016;49.788;8.742;2023-04-28T09:08:38;7.13;;;5.63;;
31384;SDS011;18016;49.788;8.742;2023-04-28T09:11:07;7.50;;;6.60;;
31384;SDS011;18016;49.788;8.742;2023-04-28T09:13:32;7.10;;;6.05;;
31384;SDS011;18016;49.788;8.742;2023-04-28T09:15:58;7.95;;;6.50;;
31384;SDS011;18016;49.788;8.742;2023-04-28T09:18:24;7.43;;;6.30;;
31384;SDS011;18016;49.788;8.742;2023-04-28T09:20:49;6.90;;;6.20;;
31384;SDS011;18016;49.788;8.742;2023-04-28T09:23:16;6.90;;;5.72;;
31384;SDS011;18016;49.788;8.742;2023-04-28T09:28:39;6.03;;;5.43;;
31384;SDS011;18016;49.788;8.742;2023-04-28T09:31:04;6.93;;;6.20;;
31384;SDS011;18016;49.788;8.742;2023-04-28T09:33:30;7.13;;;6.43;;
31384;SDS011;18016;49.788;8.742;2023-04-28T09:35:55;6.57;;;5.85;;
31384;SDS011;18016;49.788;8.742;2023-04-28T09:38:21;51.75;;;28.45;;
31384;SDS011;18016;49.788;8.742;2023-04-28T09:40:50;53.38;;;33.95;;
31384;SDS011;18016;49.788;8.742;2023-04-28T09:43:22;17.77;;;11.52;;
31384;SDS011;18016;49.788;8.742;2023-04-28T09:45:48;8.27;;;6.85;;
31384;SDS011;18016;49.788;8.742;2023-04-28T09:48:13;7.13;;;6.43;;
31384;SDS011;18016;49.788;8.742;2023-04-28T09:50:39;5.53;;;4.93;;
31384;SDS011;18016;49.788;8.742;2023-04-28T09:53:04;6.90;;;5.95;;
31384;SDS011;18016;49.788;8.742;2023-04-28T09:55:29;7.68;;;6.70;;
31384;SDS011;18016;49.788;8.742;2023-04-28T09:57:56;7.00;;;6.38;;
31384;SDS011;18016;49.788;8.742;2023-04-28T10:00:24;6.35;;;5.50;;
31384;SDS011;18016;49.788;8.742;2023-04-28T10:02:49;5.70;;;4.95;;
31384;SDS011;18016;49.788;8.742;2023-04-28T10:05:15;6.00;;;5.30;;
31384;SDS011;18016;49.788;8.742;2023-04-28T10:07:40;6.00;;;5.40;;
31384;SDS011;18016;49.788;8.742;2023-04-28T10:10:06;6.93;;;6.22;;
31384;SDS011;18016;49.788;8.742;2023-04-28T10:12:31;6.68;;;5.82;;
31384;SDS011;18016;49.788;8.742;2023-04-28T10:14:57;6.22;;;5.63;;
31384;SDS011;18016;49.788;8.742;2023-04-28T10:17:22;6.53;;;5.13;;
31384;SDS011;18016;49.788;8.742;2023-04-28T10:19:52;6.45;;;5.85;;
31384;SDS011;18016;49.788;8.742;2023-04-28T10:25:44;6.03;;;5.43;;
31384;SDS011;18016;49.788;8.742;2023-04-28T10:27:50;8.43;;;7.45;;
31384;SDS011;18016;49.788;8.742;2023-04-28T10:30:17;8.55;;;7.65;;
31384;SDS011;18016;49.788;8.742;2023-04-28T10:32:46;9.25;;;8.20;;
31384;SDS011;18016;49.788;8.742;2023-04-28T10:38:02;13.02;;;9.55;;
31384;SDS011;18016;49.788;8.742;2023-04-28T10:43:00;15.10;;;13.50;;
31384;SDS011;18016;49.788;8.742;2023-04-28T10:48:09;9.00;;;6.95;;
31384;SDS011;18016;49.788;8.742;2023-04-28T10:50:35;7.27;;;6.57;;
31384;SDS011;18016;49.788;8.742;2023-04-28T10:53:01;7.72;;;6.28;;
31384;SDS011;18016;49.788;8.742;2023-04-28T10:55:31;7.20;;;6.30;;
31384;SDS011;18016;49.788;8.742;2023-04-28T11:00:39;8.30;;;7.22;;
31384;SDS011;18016;49.788;8.742;2023-04-28T11:03:04;6.95;;;6.25;;
31384;SDS011;18016;49.788;8.742;2023-04-28T11:05:30;6.50;;;5.90;;
31384;SDS011;18016;49.788;8.742;2023-04-28T11:13:29;7.85;;;6.35;;
31384;SDS011;18016;49.788;8.742;2023-04-28T11:16:01;7.22;;;6.03;;
31384;SDS011;18016;49.788;8.742;2023-04-28T11:18:26;6.18;;;5.57;;
31384;SDS011;18016;49.788;8.742;2023-04-28T11:20:52;6.90;;;5.32;;
31384;SDS011;18016;49.788;8.742;2023-04-28T11:23:21;8.75;;;7.10;;
31384;SDS011;18016;49.788;8.742;2023-04-28T11:25:53;6.85;;;6.13;;
31384;SDS011;18016;49.788;8.742;2023-04-28T11:28:18;6.05;;;5.45;;
31384;SDS011;18016;49.788;8.742;2023-04-28T11:30:43;6.63;;;5.95;;
31384;SDS011;18016;49.788;8.742;2023-04-28T11:33:09;5.73;;;5.20;;
31384;SDS011;18016;49.788;8.742;2023-04-28T11:35:40;7.88;;;6.40;;
31384;SDS011;18016;49.788;8.742;2023-04-28T11:38:05;7.72;;;6.38;;
31384;SDS011;18016;49.788;8.742;2023-04-28T11:40:31;9.10;;;6.70;;
31384;SDS011;18016;49.788;8.742;2023-04-28T11:42:56;8.10;;;6.53;;
31384;SDS011;18016;49.788;8.742;2023-04-28T11:45:23;6.13;;;5.53;;
31384;SDS011;18016;49.788;8.742;2023-04-28T11:47:48;9.35;;;6.15;;
31384;SDS011;18016;49.788;8.742;2023-04-28T11:50:13;5.50;;;5.00;;
31384;SDS011;18016;49.788;8.742;2023-04-28T11:52:49;5.47;;;4.95;;
31384;SDS011;18016;49.788;8.742;2023-04-28T11:55:15;4.88;;;4.28;;
31384;SDS011;18016;49.788;8.742;2023-04-28T11:57:40;5.38;;;4.88;;
31384;SDS011;18016;49.788;8.742;2023-04-28T12:00:12;4.85;;;4.40;;
31384;SDS011;18016;49.788;8.742;2023-04-28T12:02:38;7.15;;;5.50;;
31384;SDS011;18016;49.788;8.742;2023-04-28T12:05:04;5.72;;;4.40;;
31384;SDS011;18016;49.788;8.742;2023-04-28T12:07:30;5.25;;;4.47;;
31384;SDS011;18016;49.788;8.742;2023-04-28T12:12:35;5.28;;;4.10;;
31384;SDS011;18016;49.788;8.742;2023-04-28T12:15:00;4.37;;;3.93;;
31384;SDS011;18016;49.788;8.742;2023-04-28T12:17:27;4.40;;;4.00;;
31384;SDS011;18016;49.788;8.742;2023-04-28T12:19:53;4.97;;;4.30;;
31384;SDS011;18016;49.788;8.742;2023-04-28T12:22:18;6.20;;;5.15;;
31384;SDS011;18016;49.788;8.742;2023-04-28T12:24:43;6.20;;;5.43;;
31384;SDS011;18016;49.788;8.742;2023-04-28T12:27:13;4.90;;;4.35;;
31384;SDS011;18016;49.788;8.742;2023-04-28T12:29:38;8.10;;;5.05;;
31384;SDS011;18016;49.788;8.742;2023-04-28T12:32:05;4.72;;;4.28;;
31384;SDS011;18016;49.788;8.742;2023-04-28T12:34:30;4.43;;;4.00;;
31384;SDS011;18016;49.788;8.742;2023-04-28T12:36:57;4.15;;;3.75;;
31384;SDS011;18016;49.788;8.742;2023-04-28T12:39:22;4.35;;;3.95;;
31384;SDS011;18016;49.788;8.742;2023-04-28T12:41:48;5.50;;;5.00;;
31384;SDS011;18016;49.788;8.742;2023-04-28T12:44:14;5.30;;;4.80;;
31384;SDS011;18016;49.788;8.742;2023-04-28T12:46:40;3.42;;;2.95;;
31384;SDS011;18016;49.788;8.742;2023-04-28T12:49:05;3.30;;;3.00;;
31384;SDS011;18016;49.788;8.742;2023-04-28T12:51:30;4.00;;;3.60;;
31384;SDS011;18016;49.788;8.742;2023-04-28T12:53:56;2.80;;;2.60;;
31384;SDS011;18016;49.788;8.742;2023-04-28T12:56:21;3.63;;;3.33;;
31384;SDS011;18016;49.788;8.742;2023-04-28T12:58:47;3.35;;;2.70;;
31384;SDS011;18016;49.788;8.742;2023-04-28T13:01:12;3.40;;;3.10;;
31384;SDS011;18016;49.788;8.742;2023-04-28T13:03:39;7.55;;;5.95;;
31384;SDS011;18016;49.788;8.742;2023-04-28T13:06:05;3.57;;;3.27;;
31384;SDS011;18016;49.788;8.742;2023-04-28T13:08:30;2.37;;;2.17;;
31384;SDS011;18016;49.788;8.742;2023-04-28T13:10:57;2.42;;;2.25;;
31384;SDS011;18016;49.788;8.742;2023-04-28T13:13:23;2.50;;;2.30;;
31384;SDS011;18016;49.788;8.742;2023-04-28T13:15:48;1.53;;;1.43;;
31384;SDS011;18016;49.788;8.742;2023-04-28T13:18:13;1.40;;;1.30;;
31384;SDS011;18016;49.788;8.742;2023-04-28T13:20:38;3.27;;;1.17;;
31384;SDS011;18016;49.788;8.742;2023-04-28T13:23:04;1.77;;;1.67;;
31384;SDS011;18016;49.788;8.742;2023-04-28T13:25:29;1.85;;;1.75;;
31384;SDS011;18016;49.788;8.742;2023-04-28T13:27:55;2.28;;;2.08;;
31384;SDS011;18016;49.788;8.742;2023-04-28T13:30:20;2.58;;;2.38;;
31384;SDS011;18016;49.788;8.742;2023-04-28T13:32:46;3.40;;;2.78;;
31384;SDS011;18016;49.788;8.742;2023-04-28T13:35:11;3.55;;;3.22;;
31384;SDS011;18016;49.788;8.742;2023-04-28T13:37:36;3.28;;;2.75;;
31384;SDS011;18016;49.788;8.742;2023-04-28T13:40:06;5.07;;;3.25;;
31384;SDS011;18016;49.788;8.742;2023-04-28T13:42:32;3.80;;;3.38;;
31384;SDS011;18016;49.788;8.742;2023-04-28T13:44:58;3.45;;;3.10;;
31384;SDS011;18016;49.788;8.742;2023-04-28T13:47:23;3.33;;;2.90;;
31384;SDS011;18016;49.788;8.742;2023-04-28T13:49:48;4.60;;;2.87;;
31384;SDS011;18016;49.788;8.742;2023-04-28T13:52:14;3.97;;;3.20;;
31384;SDS011;18016;49.788;8.742;2023-04-28T13:54:40;2.70;;;2.47;;
31384;SDS011;18016;49.788;8.742;2023-04-28T13:57:05;3.00;;;2.70;;
31384;SDS011;18016;49.788;8.742;2023-04-28T13:59:30;3.10;;;2.87;;
31384;SDS011;18016;49.788;8.742;2023-04-28T14:01:56;3.33;;;2.75;;
31384;SDS011;18016;49.788;8.742;2023-04-28T14:04:21;2.90;;;2.70;;
31384;SDS011;18016;49.788;8.742;2023-04-28T14:06:46;4.13;;;3.22;;
31384;SDS011;18016;49.788;8.742;2023-04-28T14:09:12;3.58;;;3.28;;
31384;SDS011;18016;49.788;8.742;2023-04-28T14:11:37;3.33;;;3.03;;
31384;SDS011;18016;49.788;8.742;2023-04-28T14:14:03;3.17;;;2.87;;
31384;SDS011;18016;49.788;8.742;2023-04-28T14:16:28;3.15;;;2.85;;
31384;SDS011;18016;49.788;8.742;2023-04-28T14:18:54;2.45;;;2.25;;
31384;SDS011;18016;49.788;8.742;2023-04-28T14:21:19;2.50;;;2.30;;
31384;SDS011;18016;49.788;8.742;2023-04-28T14:23:44;2.60;;;2.40;;
31384;SDS011;18016;49.788;8.742;2023-04-28T14:26:10;2.03;;;1.83;;
31384;SDS011;18016;49.788;8.742;2023-04-28T14:28:35;2.55;;;2.35;;
31384;SDS011;18016;49.788;8.742;2023-04-28T14:31:04;1.88;;;1.77;;
31384;SDS011;18016;49.788;8.742;2023-04-28T14:33:32;2.35;;;1.00;;
31384;SDS011;18016;49.788;8.742;2023-04-28T14:35:58;0.73;;;0.73;;
31384;SDS011;18016;49.788;8.742;2023-04-28T14:38:24;0.60;;;0.60;;
31384;SDS011;18016;49.788;8.742;2023-04-28T14:40:49;0.68;;;0.68;;
31384;SDS011;18016;49.788;8.742;2023-04-28T14:43:15;0.40;;;0.40;;
31384;SDS011;18016;49.788;8.742;2023-04-28T14:45:40;0.80;;;0.47;;
31384;SDS011;18016;49.788;8.742;2023-04-28T14:48:05;0.40;;;0.40;;
31384;SDS011;18016;49.788;8.742;2023-04-28T14:50:31;0.43;;;0.43;;
31384;SDS011;18016;49.788;8.742;2023-04-28T14:52:56;0.80;;;0.40;;
31384;SDS011;18016;49.788;8.742;2023-04-28T14:55:29;0.28;;;0.28;;
31384;SDS011;18016;49.788;8.742;2023-04-28T14:57:54;1.17;;;1.07;;
31384;SDS011;18016;49.788;8.742;2023-04-28T15:00:19;1.67;;;1.57;;